American Canyon, CA

4:11 AM PDT on September 21, 2014 (GMT -0700)
Federal Terrace, VSFCD | Change Station
CLOSE
Current Station
Personal Weather Station
Location: Vallejo, CA
Elevation: 34 ft
Nearby Weather Stations

Elev 34 ft 38.13 °N, 122.27 °W | Updated 7 minutes ago

Overcast
Overcast
63.2 °F
Feels Like 63.2 °F
N
7.0
Wind Variable Wind from West
Gusts 13.0 mph

Today
High -- | Low -- °F
--% Chance of Precip.
Yesterday
High -- | Low -- °F
Precip. -- in
6:55 AM 7:07 PM
Waning Crescent, 7% visible
Pressure 29.90 in
Visibility 10.0 miles
Clouds Overcast 1400 ft
Dew Point 59 °F
Humidity 85%
Rainfall 0.00 in
Snow Depth 0 in , 1 in , 0 in
UV 0.0 out of 12
Pollen 4.00 out of 12
Air Quality Not available.
Flu Activity Not available.
METAR KAPC 211054Z AUTO 28013KT 10SM OVC014 17/14 A2992 RMK AO2 SLP123 T01670144

More Conditions Fewer Conditions

Pressure 29.90 in
Visibility 10.0 miles
Clouds Overcast 1400 ft
Dew Point 59 °F
Humidity 85%
Rainfall 0.00 in
Snow Depth 0 in , 1 in , 0 in
UV 0.0 out of 12
Pollen 4.00 out of 12
Air Quality Not available.
Flu Activity Not available.
METAR KAPC 211054Z AUTO 28013KT 10SM OVC014 17/14 A2992 RMK AO2 SLP123 T01670144

More Conditions Fewer Conditions

10-Day Weather Forecast

Almanac

Astronomy

Sep. 21, 2014 Rise Set
Actual Time 6:55 AM PDT 7:07 PM PDT
Civil Twilight 6:29 AM PDT 7:33 PM PDT
Nautical Twilight 5:58 AM PDT 8:04 PM PDT
Astronomical Twilight 5:27 AM PDT 8:35 PM PDT
Moon 4:36 AM PDT 5:45 PM PDT
Length of Visible Light 13h 04m
Length of Day
12h 11m
Tomorrow will be 2m 26s shorter.
Waning Crescent, 7% of the Moon is Illuminated
Today
Waning Crescent
Sep 24
New
Oct 1
First Quarter
Oct 8
Full
Oct 15
Last Quarter

Today's Extremes

State Highs State Lows

Community

WunderPhotos

Upload Photos

1,755,113 photos uploaded!

Nearby

Air Quality

  Air Quality AQ Index Pollutant
Yesterday Good
PM2.5
Yesterday Good
OZONE
Sunday Moderate
PM2.5
Monday Moderate
PM2.5
Tuesday Moderate
PM2.5
Wednesday Good
PM2.5
Thursday Good
OZONE

Snow Depth

Station Depth Elevation
Ebbetts Pass 0 in 8700 ft
Echo Peak 1 in 7800 ft
Fallen Leaf 0 in 6300 ft
Heavenly Valley 0 in 8850 ft
Summit Meadow 0 in 9122 ft

Earthquake Activity

City Distance Mag. Time & Date
Cloverdale, California 57 miles 2.5 9:15 PM PDT
2014-09-20
Livermore, California 44 miles 2.6 3:37 AM PDT
2014-09-19
The Geysers, California 47 miles 2.5 11:29 PM PDT
2014-09-17
Minimum magnitude displayed is 2.5.

Coastal Water Temperatures

Place Temperature
San Francisco, CA 64.9 °F
Richmond, CA 68.0 °F
Port Chicago, CA 70.0 °F

Nearby Weather Stations